sensor_id;sensor_type;location;lat;lon;timestamp;pressure;altitude;pressure_sealevel;temperature;humidity
76024;BME280;64719;52.124;6.226;2023-05-07T00:01:43;101760.69;;;14.41;100.00
76024;BME280;64719;52.124;6.226;2023-05-07T00:04:11;101764.03;;;14.43;100.00
76024;BME280;64719;52.124;6.226;2023-05-07T00:06:38;101769.88;;;14.46;100.00
76024;BME280;64719;52.124;6.226;2023-05-07T00:09:05;101758.09;;;14.46;100.00
76024;BME280;64719;52.124;6.226;2023-05-07T00:11:33;101768.19;;;14.45;100.00
76024;BME280;64719;52.124;6.226;2023-05-07T00:14:00;101769.88;;;14.46;100.00
76024;BME280;64719;52.124;6.226;2023-05-07T00:16:26;101768.41;;;14.44;100.00
76024;BME280;64719;52.124;6.226;2023-05-07T00:18:53;101773.06;;;14.43;100.00
76024;BME280;64719;52.124;6.226;2023-05-07T00:21:21;101765.44;;;14.45;100.00
76024;BME280;64719;52.124;6.226;2023-05-07T00:23:47;101761.06;;;14.44;100.00
76024;BME280;64719;52.124;6.226;2023-05-07T00:26:14;101764.63;;;14.45;100.00
76024;BME280;64719;52.124;6.226;2023-05-07T00:28:40;101763.81;;;14.44;100.00
76024;BME280;64719;52.124;6.226;2023-05-07T00:31:07;101757.16;;;14.40;100.00
76024;BME280;64719;52.124;6.226;2023-05-07T00:33:33;101750.25;;;14.38;100.00
76024;BME280;64719;52.124;6.226;2023-05-07T00:36:00;101751.31;;;14.37;100.00
76024;BME280;64719;52.124;6.226;2023-05-07T00:38:28;101752.97;;;14.38;100.00
76024;BME280;64719;52.124;6.226;2023-05-07T00:40:55;101747.75;;;14.36;100.00
76024;BME280;64719;52.124;6.226;2023-05-07T00:43:21;101743.72;;;14.39;100.00
76024;BME280;64719;52.124;6.226;2023-05-07T00:45:48;101740.41;;;14.37;100.00
76024;BME280;64719;52.124;6.226;2023-05-07T00:48:15;101732.44;;;14.35;100.00
76024;BME280;64719;52.124;6.226;2023-05-07T00:50:43;101736.72;;;14.31;100.00
76024;BME280;64719;52.124;6.226;2023-05-07T00:53:10;101729.81;;;14.29;100.00
76024;BME280;64719;52.124;6.226;2023-05-07T00:55:38;101722.69;;;14.28;100.00
76024;BME280;64719;52.124;6.226;2023-05-07T00:58:06;101724.81;;;14.26;100.00
76024;BME280;64719;52.124;6.226;2023-05-07T01:00:32;101723.41;;;14.23;100.00
76024;BME280;64719;52.124;6.226;2023-05-07T01:02:59;101716.25;;;14.22;100.00
76024;BME280;64719;52.124;6.226;2023-05-07T01:05:26;101713.75;;;14.21;100.00
76024;BME280;64719;52.124;6.226;2023-05-07T01:07:54;101713.16;;;14.19;100.00
76024;BME280;64719;52.124;6.226;2023-05-07T01:10:21;101707.06;;;14.17;100.00
76024;BME280;64719;52.124;6.226;2023-05-07T01:12:50;101712.19;;;14.13;100.00
76024;BME280;64719;52.124;6.226;2023-05-07T01:15:17;101711.81;;;14.10;100.00
76024;BME280;64719;52.124;6.226;2023-05-07T01:17:44;101715.47;;;14.04;100.00
76024;BME280;64719;52.124;6.226;2023-05-07T01:20:11;101717.38;;;14.03;100.00
76024;BME280;64719;52.124;6.226;2023-05-07T01:22:39;101716.88;;;13.95;100.00
76024;BME280;64719;52.124;6.226;2023-05-07T01:25:06;101722.19;;;13.90;100.00
76024;BME280;64719;52.124;6.226;2023-05-07T01:27:33;101715.88;;;13.89;100.00
76024;BME280;64719;52.124;6.226;2023-05-07T01:30:00;101711.13;;;13.85;100.00
76024;BME280;64719;52.124;6.226;2023-05-07T01:32:29;101715.78;;;13.84;100.00
76024;BME280;64719;52.124;6.226;2023-05-07T01:34:59;101719.88;;;13.75;100.00
76024;BME280;64719;52.124;6.226;2023-05-07T01:37:28;101728.88;;;13.76;100.00
76024;BME280;64719;52.124;6.226;2023-05-07T01:39:56;101729.13;;;13.74;100.00
76024;BME280;64719;52.124;6.226;2023-05-07T01:42:23;101723.78;;;13.68;100.00
76024;BME280;64719;52.124;6.226;2023-05-07T01:44:50;101729.31;;;13.61;100.00
76024;BME280;64719;52.124;6.226;2023-05-07T01:47:17;101715.91;;;13.60;100.00
76024;BME280;64719;52.124;6.226;2023-05-07T01:49:44;101715.75;;;13.55;100.00
76024;BME280;64719;52.124;6.226;2023-05-07T01:52:10;101722.88;;;13.56;100.00
76024;BME280;64719;52.124;6.226;2023-05-07T01:54:37;101727.25;;;13.57;100.00
76024;BME280;64719;52.124;6.226;2023-05-07T01:57:05;101719.31;;;13.55;100.00
76024;BME280;64719;52.124;6.226;2023-05-07T01:59:31;101723.13;;;13.54;100.00
76024;BME280;64719;52.124;6.226;2023-05-07T02:01:58;101721.19;;;13.55;100.00
76024;BME280;64719;52.124;6.226;2023-05-07T02:04:25;101723.25;;;13.59;100.00
76024;BME280;64719;52.124;6.226;2023-05-07T02:06:52;101724.94;;;13.60;100.00
76024;BME280;64719;52.124;6.226;2023-05-07T02:09:18;101727.19;;;13.63;100.00
76024;BME280;64719;52.124;6.226;2023-05-07T02:11:45;101725.66;;;13.67;100.00
76024;BME280;64719;52.124;6.226;2023-05-07T02:14:13;101722.69;;;13.69;100.00
76024;BME280;64719;52.124;6.226;2023-05-07T02:16:40;101727.91;;;13.70;100.00
76024;BME280;64719;52.124;6.226;2023-05-07T02:19:07;101733.16;;;13.72;100.00
76024;BME280;64719;52.124;6.226;2023-05-07T02:21:33;101729.34;;;13.73;100.00
76024;BME280;64719;52.124;6.226;2023-05-07T02:24:00;101742.41;;;13.71;100.00
76024;BME280;64719;52.124;6.226;2023-05-07T02:26:26;101733.16;;;13.72;100.00
76024;BME280;64719;52.124;6.226;2023-05-07T02:28:52;101737.75;;;13.71;100.00
76024;BME280;64719;52.124;6.226;2023-05-07T02:31:20;101731.72;;;13.69;100.00
76024;BME280;64719;52.124;6.226;2023-05-07T02:33:47;101733.59;;;13.69;100.00
76024;BME280;64719;52.124;6.226;2023-05-07T02:36:13;101727.91;;;13.70;100.00
76024;BME280;64719;52.124;6.226;2023-05-07T02:38:40;101729.00;;;13.69;100.00
76024;BME280;64719;52.124;6.226;2023-05-07T02:41:07;101734.91;;;13.66;100.00
76024;BME280;64719;52.124;6.226;2023-05-07T02:43:33;101735.72;;;13.67;100.00
76024;BME280;64719;52.124;6.226;2023-05-07T02:46:00;101732.03;;;13.61;100.00
76024;BME280;64719;52.124;6.226;2023-05-07T02:48:29;101722.66;;;13.57;100.00
76024;BME280;64719;52.124;6.226;2023-05-07T02:50:55;101729.59;;;13.53;100.00
76024;BME280;64719;52.124;6.226;2023-05-07T02:53:22;101722.72;;;13.51;100.00
76024;BME280;64719;52.124;6.226;2023-05-07T02:55:51;101724.25;;;13.47;100.00
76024;BME280;64719;52.124;6.226;2023-05-07T02:58:17;101724.03;;;13.48;100.00
76024;BME280;64719;52.124;6.226;2023-05-07T03:00:44;101719.38;;;13.49;100.00
76024;BME280;64719;52.124;6.226;2023-05-07T03:03:10;101720.69;;;13.46;100.00
76024;BME280;64719;52.124;6.226;2023-05-07T03:05:38;101717.13;;;13.46;100.00
76024;BME280;64719;52.124;6.226;2023-05-07T03:08:05;101728.88;;;13.46;100.00
76024;BME280;64719;52.124;6.226;2023-05-07T03:10:31;101732.22;;;13.48;100.00
76024;BME280;64719;52.124;6.226;2023-05-07T03:12:58;101735.16;;;13.47;100.00
76024;BME280;64719;52.124;6.226;2023-05-07T03:15:24;101733.13;;;13.42;100.00
76024;BME280;64719;52.124;6.226;2023-05-07T03:17:51;101741.53;;;13.41;100.00
76024;BME280;64719;52.124;6.226;2023-05-07T03:20:17;101738.81;;;13.41;100.00
76024;BME280;64719;52.124;6.226;2023-05-07T03:22:45;101736.31;;;13.39;100.00
76024;BME280;64719;52.124;6.226;2023-05-07T03:25:12;101742.81;;;13.38;100.00
76024;BME280;64719;52.124;6.226;2023-05-07T03:27:39;101736.16;;;13.34;100.00
76024;BME280;64719;52.124;6.226;2023-05-07T03:30:08;101738.25;;;13.32;100.00
76024;BME280;64719;52.124;6.226;2023-05-07T03:32:34;101736.44;;;13.26;100.00
76024;BME280;64719;52.124;6.226;2023-05-07T03:35:01;101729.34;;;13.25;100.00
76024;BME280;64719;52.124;6.226;2023-05-07T03:37:28;101731.09;;;13.20;100.00
76024;BME280;64719;52.124;6.226;2023-05-07T03:39:56;101734.50;;;13.15;100.00
76024;BME280;64719;52.124;6.226;2023-05-07T03:42:23;101734.94;;;13.12;100.00
76024;BME280;64719;52.124;6.226;2023-05-07T03:44:50;101740.63;;;13.11;100.00
76024;BME280;64719;52.124;6.226;2023-05-07T03:47:16;101742.28;;;13.12;100.00
76024;BME280;64719;52.124;6.226;2023-05-07T03:49:42;101733.72;;;13.08;100.00
76024;BME280;64719;52.124;6.226;2023-05-07T03:52:09;101742.75;;;13.09;100.00
76024;BME280;64719;52.124;6.226;2023-05-07T03:54:36;101737.28;;;13.09;100.00
76024;BME280;64719;52.124;6.226;2023-05-07T03:57:04;101738.34;;;13.08;100.00
76024;BME280;64719;52.124;6.226;2023-05-07T03:59:30;101739.41;;;13.07;100.00
76024;BME280;64719;52.124;6.226;2023-05-07T04:01:57;101742.13;;;13.07;100.00
76024;BME280;64719;52.124;6.226;2023-05-07T04:04:23;101739.16;;;13.08;100.00
76024;BME280;64719;52.124;6.226;2023-05-07T04:06:50;101746.53;;;13.08;100.00
76024;BME280;64719;52.124;6.226;2023-05-07T04:09:16;101745.00;;;13.12;100.00
76024;BME280;64719;52.124;6.226;2023-05-07T04:11:43;101746.44;;;13.14;100.00
76024;BME280;64719;52.124;6.226;2023-05-07T04:14:11;101755.84;;;13.18;100.00
76024;BME280;64719;52.124;6.226;2023-05-07T04:16:37;101755.16;;;13.23;100.00
76024;BME280;64719;52.124;6.226;2023-05-07T04:19:04;101752.56;;;13.28;100.00
76024;BME280;64719;52.124;6.226;2023-05-07T04:21:30;101759.50;;;13.30;100.00
76024;BME280;64719;52.124;6.226;2023-05-07T04:23:57;101751.66;;;13.34;100.00
76024;BME280;64719;52.124;6.226;2023-05-07T04:26:24;101752.50;;;13.34;100.00
76024;BME280;64719;52.124;6.226;2023-05-07T04:28:50;101751.66;;;13.34;100.00
76024;BME280;64719;52.124;6.226;2023-05-07T04:31:18;101752.28;;;13.36;100.00
76024;BME280;64719;52.124;6.226;2023-05-07T04:33:45;101758.56;;;13.36;100.00
76024;BME280;64719;52.124;6.226;2023-05-07T04:36:11;101752.91;;;13.38;100.00
76024;BME280;64719;52.124;6.226;2023-05-07T04:38:37;101764.63;;;13.38;100.00
76024;BME280;64719;52.124;6.226;2023-05-07T04:41:05;101758.13;;;13.39;100.00
76024;BME280;64719;52.124;6.226;2023-05-07T04:43:32;101762.50;;;13.40;100.00
76024;BME280;64719;52.124;6.226;2023-05-07T04:45:58;101759.56;;;13.42;100.00
76024;BME280;64719;52.124;6.226;2023-05-07T04:48:26;101760.41;;;13.42;100.00
76024;BME280;64719;52.124;6.226;2023-05-07T04:50:54;101765.97;;;13.47;100.00
76024;BME280;64719;52.124;6.226;2023-05-07T04:53:20;101761.75;;;13.51;100.00
76024;BME280;64719;52.124;6.226;2023-05-07T04:55:47;101767.50;;;13.61;100.00
76024;BME280;64719;52.124;6.226;2023-05-07T04:58:14;101768.22;;;13.68;100.00
76024;BME280;64719;52.124;6.226;2023-05-07T05:00:41;101762.19;;;13.66;100.00
76024;BME280;64719;52.124;6.226;2023-05-07T05:03:07;101767.19;;;13.69;100.00
76024;BME280;64719;52.124;6.226;2023-05-07T05:05:35;101776.19;;;13.70;100.00
76024;BME280;64719;52.124;6.226;2023-05-07T05:08:02;101781.41;;;13.71;100.00
76024;BME280;64719;52.124;6.226;2023-05-07T05:10:28;101780.38;;;13.72;100.00
76024;BME280;64719;52.124;6.226;2023-05-07T05:12:55;101781.06;;;13.68;100.00
76024;BME280;64719;52.124;6.226;2023-05-07T05:15:21;101787.69;;;13.72;100.00
76024;BME280;64719;52.124;6.226;2023-05-07T05:17:48;101785.41;;;13.87;100.00
76024;BME280;64719;52.124;6.226;2023-05-07T05:20:14;101787.22;;;13.93;100.00
76024;BME280;64719;52.124;6.226;2023-05-07T05:22:42;101790.09;;;13.98;100.00
76024;BME280;64719;52.124;6.226;2023-05-07T05:25:09;101788.88;;;13.94;100.00
76024;BME280;64719;52.124;6.226;2023-05-07T05:27:35;101788.44;;;13.79;100.00
76024;BME280;64719;52.124;6.226;2023-05-07T05:30:03;101796.78;;;13.84;100.00
76024;BME280;64719;52.124;6.226;2023-05-07T05:32:30;101793.66;;;13.80;100.00
76024;BME280;64719;52.124;6.226;2023-05-07T05:34:56;101801.28;;;13.78;100.00
76024;BME280;64719;52.124;6.226;2023-05-07T05:37:23;101807.31;;;13.80;100.00
76024;BME280;64719;52.124;6.226;2023-05-07T05:39:51;101804.34;;;13.82;100.00
76024;BME280;64719;52.124;6.226;2023-05-07T05:42:20;101810.41;;;13.84;100.00
76024;BME280;64719;52.124;6.226;2023-05-07T05:44:46;101813.06;;;13.90;100.00
76024;BME280;64719;52.124;6.226;2023-05-07T05:47:13;101812.03;;;14.03;100.00
76024;BME280;64719;52.124;6.226;2023-05-07T05:49:39;101818.53;;;13.90;100.00
76024;BME280;64719;52.124;6.226;2023-05-07T05:52:08;101823.38;;;13.88;100.00
76024;BME280;64719;52.124;6.226;2023-05-07T05:54:34;101821.38;;;13.95;100.00
76024;BME280;64719;52.124;6.226;2023-05-07T05:57:02;101817.31;;;13.86;99.92
76024;BME280;64719;52.124;6.226;2023-05-07T05:59:29;101817.97;;;14.00;100.00
76024;BME280;64719;52.124;6.226;2023-05-07T06:01:55;101820.38;;;14.08;100.00
76024;BME280;64719;52.124;6.226;2023-05-07T06:04:22;101816.34;;;14.10;99.91
76024;BME280;64719;52.124;6.226;2023-05-07T06:06:48;101822.72;;;14.04;99.33
76024;BME280;64719;52.124;6.226;2023-05-07T06:09:15;101826.59;;;13.97;99.59
76024;BME280;64719;52.124;6.226;2023-05-07T06:11:41;101830.19;;;13.97;99.50
76024;BME280;64719;52.124;6.226;2023-05-07T06:14:09;101834.09;;;14.01;99.34
76024;BME280;64719;52.124;6.226;2023-05-07T06:16:36;101830.91;;;14.04;98.99
76024;BME280;64719;52.124;6.226;2023-05-07T06:19:03;101836.16;;;14.06;99.22
76024;BME280;64719;52.124;6.226;2023-05-07T06:21:29;101838.06;;;14.05;98.88
76024;BME280;64719;52.124;6.226;2023-05-07T06:23:56;101836.25;;;13.99;98.50
76024;BME280;64719;52.124;6.226;2023-05-07T06:26:23;101838.06;;;14.05;98.37
76024;BME280;64719;52.124;6.226;2023-05-07T06:28:50;101841.75;;;14.11;98.47
76024;BME280;64719;52.124;6.226;2023-05-07T06:31:19;101834.66;;;14.10;98.34
76024;BME280;64719;52.124;6.226;2023-05-07T06:33:46;101831.06;;;14.09;98.18
76024;BME280;64719;52.124;6.226;2023-05-07T06:36:13;101833.63;;;14.22;98.44
76024;BME280;64719;52.124;6.226;2023-05-07T06:38:39;101839.72;;;14.24;97.79
76024;BME280;64719;52.124;6.226;2023-05-07T06:41:06;101843.84;;;14.45;97.81
76024;BME280;64719;52.124;6.226;2023-05-07T06:43:33;101844.81;;;14.50;98.00
76024;BME280;64719;52.124;6.226;2023-05-07T06:46:00;101848.22;;;14.46;96.95
76024;BME280;64719;52.124;6.226;2023-05-07T06:48:27;101848.09;;;14.41;97.20
76024;BME280;64719;52.124;6.226;2023-05-07T06:50:55;101847.03;;;14.42;97.13
76024;BME280;64719;52.124;6.226;2023-05-07T06:53:22;101846.69;;;14.50;96.93
76024;BME280;64719;52.124;6.226;2023-05-07T06:55:49;101853.13;;;14.55;96.50
76024;BME280;64719;52.124;6.226;2023-05-07T06:58:16;101848.84;;;14.48;96.51
76024;BME280;64719;52.124;6.226;2023-05-07T07:00:42;101847.63;;;14.44;96.46
76024;BME280;64719;52.124;6.226;2023-05-07T07:03:09;101852.34;;;14.37;96.25
76024;BME280;64719;52.124;6.226;2023-05-07T07:05:37;101847.28;;;14.40;96.18
76024;BME280;64719;52.124;6.226;2023-05-07T07:08:04;101853.31;;;14.42;96.07
76024;BME280;64719;52.124;6.226;2023-05-07T07:10:31;101859.06;;;14.52;96.15
76024;BME280;64719;52.124;6.226;2023-05-07T07:12:57;101857.38;;;14.51;95.65
76024;BME280;64719;52.124;6.226;2023-05-07T07:15:24;101850.34;;;14.44;95.98
76024;BME280;64719;52.124;6.226;2023-05-07T07:17:51;101850.50;;;14.49;95.91
76024;BME280;64719;52.124;6.226;2023-05-07T07:20:17;101857.06;;;14.59;95.41
76024;BME280;64719;52.124;6.226;2023-05-07T07:22:45;101862.59;;;14.83;94.65
76024;BME280;64719;52.124;6.226;2023-05-07T07:25:11;101854.47;;;14.76;93.83
76024;BME280;64719;52.124;6.226;2023-05-07T07:27:38;101859.88;;;14.94;92.90
76024;BME280;64719;52.124;6.226;2023-05-07T07:30:06;101859.63;;;14.84;92.36
76024;BME280;64719;52.124;6.226;2023-05-07T07:32:32;101857.78;;;14.66;93.40
76024;BME280;64719;52.124;6.226;2023-05-07T07:34:59;101863.00;;;14.68;93.56
76024;BME280;64719;52.124;6.226;2023-05-07T07:37:25;101856.03;;;14.72;93.50
76024;BME280;64719;52.124;6.226;2023-05-07T07:39:53;101859.34;;;14.74;93.25
76024;BME280;64719;52.124;6.226;2023-05-07T07:42:20;101855.31;;;14.77;93.07
76024;BME280;64719;52.124;6.226;2023-05-07T07:44:46;101853.44;;;14.89;93.25
76024;BME280;64719;52.124;6.226;2023-05-07T07:47:13;101850.72;;;15.00;92.68
76024;BME280;64719;52.124;6.226;2023-05-07T07:49:39;101851.31;;;15.02;92.06
76024;BME280;64719;52.124;6.226;2023-05-07T07:52:05;101852.84;;;14.98;92.43
76024;BME280;64719;52.124;6.226;2023-05-07T07:54:32;101850.34;;;14.97;92.87
76024;BME280;64719;52.124;6.226;2023-05-07T07:57:00;101850.38;;;15.08;92.27
76024;BME280;64719;52.124;6.226;2023-05-07T07:59:26;101854.19;;;15.19;91.97
76024;BME280;64719;52.124;6.226;2023-05-07T08:01:53;101854.66;;;15.27;91.08
76024;BME280;64719;52.124;6.226;2023-05-07T08:04:22;101866.28;;;15.34;91.11
76024;BME280;64719;52.124;6.226;2023-05-07T08:06:48;101862.06;;;15.61;90.47
76024;BME280;64719;52.124;6.226;2023-05-07T08:09:14;101867.63;;;15.66;89.66
76024;BME280;64719;52.124;6.226;2023-05-07T08:11:41;101862.91;;;16.01;89.35
76024;BME280;64719;52.124;6.226;2023-05-07T08:14:09;101868.41;;;16.29;86.77
76024;BME280;64719;52.124;6.226;2023-05-07T08:16:35;101866.81;;;16.05;87.20
76024;BME280;64719;52.124;6.226;2023-05-07T08:19:02;101869.28;;;16.18;86.79
76024;BME280;64719;52.124;6.226;2023-05-07T08:21:29;101867.97;;;16.49;85.45
76024;BME280;64719;52.124;6.226;2023-05-07T08:23:56;101877.09;;;16.66;85.78
76024;BME280;64719;52.124;6.226;2023-05-07T08:26:22;101876.13;;;16.89;84.01
76024;BME280;64719;52.124;6.226;2023-05-07T08:28:49;101878.69;;;16.79;84.45
76024;BME280;64719;52.124;6.226;2023-05-07T08:31:16;101866.66;;;16.96;83.70
76024;BME280;64719;52.124;6.226;2023-05-07T08:33:43;101872.38;;;17.11;83.95
76024;BME280;64719;52.124;6.226;2023-05-07T08:36:09;101882.59;;;17.16;81.72
76024;BME280;64719;52.124;6.226;2023-05-07T08:38:36;101872.47;;;17.33;81.74
76024;BME280;64719;52.124;6.226;2023-05-07T08:41:02;101881.34;;;17.07;81.79
76024;BME280;64719;52.124;6.226;2023-05-07T08:43:31;101889.06;;;17.43;82.08
76024;BME280;64719;52.124;6.226;2023-05-07T08:46:00;101883.84;;;17.58;80.39
76024;BME280;64719;52.124;6.226;2023-05-07T08:48:29;101881.22;;;18.06;79.67
76024;BME280;64719;52.124;6.226;2023-05-07T08:50:57;101885.00;;;18.43;77.72
76024;BME280;64719;52.124;6.226;2023-05-07T08:53:24;101885.38;;;18.83;75.10
76024;BME280;64719;52.124;6.226;2023-05-07T08:55:51;101874.88;;;19.07;74.26
76024;BME280;64719;52.124;6.226;2023-05-07T08:58:17;101875.84;;;19.59;73.01
76024;BME280;64719;52.124;6.226;2023-05-07T09:00:44;101879.53;;;19.74;71.98
76024;BME280;64719;52.124;6.226;2023-05-07T09:03:12;101891.50;;;19.53;72.83
76024;BME280;64719;52.124;6.226;2023-05-07T09:05:40;101882.31;;;20.46;70.44
76024;BME280;64719;52.124;6.226;2023-05-07T09:08:08;101879.38;;;19.96;69.66
76024;BME280;64719;52.124;6.226;2023-05-07T09:10:35;101890.66;;;19.94;70.45
76024;BME280;64719;52.124;6.226;2023-05-07T09:13:02;101888.78;;;20.05;70.13
76024;BME280;64719;52.124;6.226;2023-05-07T09:15:29;101879.09;;;19.98;70.23
76024;BME280;64719;52.124;6.226;2023-05-07T09:17:59;101889.66;;;19.64;71.35
76024;BME280;64719;52.124;6.226;2023-05-07T09:20:27;101885.25;;;19.63;70.44
76024;BME280;64719;52.124;6.226;2023-05-07T09:22:56;101889.31;;;20.02;70.28
76024;BME280;64719;52.124;6.226;2023-05-07T09:25:28;101887.28;;;20.39;69.59
76024;BME280;64719;52.124;6.226;2023-05-07T09:27:54;101883.53;;;20.04;70.53
76024;BME280;64719;52.124;6.226;2023-05-07T09:30:21;101882.91;;;20.53;69.25
76024;BME280;64719;52.124;6.226;2023-05-07T09:32:47;101887.09;;;19.99;70.83
76024;BME280;64719;52.124;6.226;2023-05-07T09:35:14;101885.13;;;20.66;70.36
76024;BME280;64719;52.124;6.226;2023-05-07T09:37:42;101891.16;;;20.48;69.94
76024;BME280;64719;52.124;6.226;2023-05-07T09:40:20;101889.63;;;21.12;68.12
76024;BME280;64719;52.124;6.226;2023-05-07T09:42:46;101882.06;;;20.53;68.56
76024;BME280;64719;52.124;6.226;2023-05-07T09:45:13;101878.03;;;21.05;66.31
76024;BME280;64719;52.124;6.226;2023-05-07T09:47:42;101884.34;;;21.51;64.31
76024;BME280;64719;52.124;6.226;2023-05-07T09:50:11;101883.91;;;22.18;63.38
76024;BME280;64719;52.124;6.226;2023-05-07T09:52:39;101885.88;;;22.07;62.58
76024;BME280;64719;52.124;6.226;2023-05-07T09:55:07;101881.13;;;23.10;60.09
76024;BME280;64719;52.124;6.226;2023-05-07T09:57:36;101883.75;;;23.59;57.41
76024;BME280;64719;52.124;6.226;2023-05-07T10:00:04;101886.69;;;24.38;55.17
76024;BME280;64719;52.124;6.226;2023-05-07T10:02:32;101879.88;;;24.30;54.35
76024;BME280;64719;52.124;6.226;2023-05-07T10:05:01;101881.00;;;22.91;58.50
76024;BME280;64719;52.124;6.226;2023-05-07T10:07:28;101883.09;;;23.67;59.42
76024;BME280;64719;52.124;6.226;2023-05-07T10:09:55;101884.06;;;24.28;57.38
76024;BME280;64719;52.124;6.226;2023-05-07T10:12:21;101886.00;;;23.80;56.19
76024;BME280;64719;52.124;6.226;2023-05-07T10:14:52;101889.41;;;22.76;58.71
76024;BME280;64719;52.124;6.226;2023-05-07T10:17:20;101886.75;;;22.56;60.10
76024;BME280;64719;52.124;6.226;2023-05-07T10:19:47;101887.72;;;23.14;59.38
76024;BME280;64719;52.124;6.226;2023-05-07T10:22:15;101883.97;;;23.62;58.74
76024;BME280;64719;52.124;6.226;2023-05-07T10:24:44;101880.69;;;24.73;54.25
76024;BME280;64719;52.124;6.226;2023-05-07T10:27:12;101883.69;;;25.86;51.39
76024;BME280;64719;52.124;6.226;2023-05-07T10:29:48;101877.34;;;24.52;55.25
76024;BME280;64719;52.124;6.226;2023-05-07T10:32:33;101876.59;;;24.05;56.09
76024;BME280;64719;52.124;6.226;2023-05-07T10:35:06;101888.94;;;23.36;58.21
76024;BME280;64719;52.124;6.226;2023-05-07T10:37:35;101885.28;;;23.07;59.43
76024;BME280;64719;52.124;6.226;2023-05-07T10:40:02;101882.31;;;22.60;59.74
76024;BME280;64719;52.124;6.226;2023-05-07T10:42:29;101889.22;;;22.63;60.72
76024;BME280;64719;52.124;6.226;2023-05-07T10:44:56;101898.44;;;22.92;59.76
76024;BME280;64719;52.124;6.226;2023-05-07T10:47:22;101892.34;;;22.41;58.95
76024;BME280;64719;52.124;6.226;2023-05-07T10:53:21;101888.53;;;22.86;58.54
76024;BME280;64719;52.124;6.226;2023-05-07T10:55:52;101887.00;;;22.98;57.64
76024;BME280;64719;52.124;6.226;2023-05-07T10:58:38;101885.81;;;23.72;54.27
76024;BME280;64719;52.124;6.226;2023-05-07T11:01:04;101873.53;;;25.36;50.93
76024;BME280;64719;52.124;6.226;2023-05-07T11:03:31;101879.09;;;25.17;50.41
76024;BME280;64719;52.124;6.226;2023-05-07T11:06:11;101880.22;;;26.35;46.73
76024;BME280;64719;52.124;6.226;2023-05-07T11:08:55;101875.94;;;27.83;43.40
76024;BME280;64719;52.124;6.226;2023-05-07T11:11:46;101881.63;;;27.39;44.28
76024;BME280;64719;52.124;6.226;2023-05-07T11:14:13;101879.28;;;26.39;46.67
76024;BME280;64719;52.124;6.226;2023-05-07T11:16:41;101879.97;;;27.16;45.80
76024;BME280;64719;52.124;6.226;2023-05-07T11:19:09;101873.59;;;29.06;41.44
76024;BME280;64719;52.124;6.226;2023-05-07T11:21:36;101877.47;;;27.89;44.97
76024;BME280;64719;52.124;6.226;2023-05-07T11:24:05;101858.97;;;28.10;44.64
76024;BME280;64719;52.124;6.226;2023-05-07T11:26:42;101865.50;;;27.67;44.37
76024;BME280;64719;52.124;6.226;2023-05-07T11:29:14;101862.56;;;27.33;44.80
76024;BME280;64719;52.124;6.226;2023-05-07T11:31:42;101867.28;;;26.88;46.69
76024;BME280;64719;52.124;6.226;2023-05-07T11:34:08;101872.03;;;26.38;46.96
76024;BME280;64719;52.124;6.226;2023-05-07T11:36:41;101869.81;;;26.00;49.46
76024;BME280;64719;52.124;6.226;2023-05-07T11:39:26;101865.84;;;26.91;46.98
76024;BME280;64719;52.124;6.226;2023-05-07T11:41:52;101870.34;;;27.22;45.38
76024;BME280;64719;52.124;6.226;2023-05-07T11:44:19;101866.34;;;26.57;46.65
76024;BME280;64719;52.124;6.226;2023-05-07T11:46:45;101871.00;;;26.48;47.37
76024;BME280;64719;52.124;6.226;2023-05-07T11:49:12;101872.22;;;26.91;45.93
76024;BME280;64719;52.124;6.226;2023-05-07T11:51:39;101878.88;;;27.04;44.95
76024;BME280;64719;52.124;6.226;2023-05-07T11:54:06;101875.59;;;27.85;43.62
76024;BME280;64719;52.124;6.226;2023-05-07T11:56:35;101881.75;;;27.12;45.16
76024;BME280;64719;52.124;6.226;2023-05-07T11:59:01;101875.81;;;26.69;43.24
76024;BME280;64719;52.124;6.226;2023-05-07T12:01:28;101880.41;;;26.25;43.87
76024;BME280;64719;52.124;6.226;2023-05-07T12:03:54;101873.44;;;26.99;42.57
76024;BME280;64719;52.124;6.226;2023-05-07T12:06:21;101873.09;;;26.78;43.35
76024;BME280;64719;52.124;6.226;2023-05-07T12:08:47;101873.00;;;26.83;42.18
76024;BME280;64719;52.124;6.226;2023-05-07T12:11:16;101866.59;;;26.83;43.88
76024;BME280;64719;52.124;6.226;2023-05-07T12:13:49;101863.56;;;27.98;41.16
76024;BME280;64719;52.124;6.226;2023-05-07T12:16:16;101865.94;;;28.30;41.12
76024;BME280;64719;52.124;6.226;2023-05-07T12:18:42;101858.69;;;28.20;41.94
76024;BME280;64719;52.124;6.226;2023-05-07T12:21:09;101868.06;;;28.24;42.37
76024;BME280;64719;52.124;6.226;2023-05-07T12:23:36;101865.06;;;27.73;42.44
76024;BME280;64719;52.124;6.226;2023-05-07T12:26:03;101862.47;;;27.24;44.54
76024;BME280;64719;52.124;6.226;2023-05-07T12:28:31;101857.88;;;25.99;46.77
76024;BME280;64719;52.124;6.226;2023-05-07T12:31:03;101868.56;;;24.64;49.63
76024;BME280;64719;52.124;6.226;2023-05-07T12:33:30;101877.09;;;25.23;47.12
76024;BME280;64719;52.124;6.226;2023-05-07T12:35:58;101870.44;;;26.24;46.23
76024;BME280;64719;52.124;6.226;2023-05-07T12:38:24;101867.63;;;25.83;46.72
76024;BME280;64719;52.124;6.226;2023-05-07T12:40:54;101867.06;;;25.41;47.51
76024;BME280;64719;52.124;6.226;2023-05-07T12:43:24;101867.41;;;25.66;46.27
76024;BME280;64719;52.124;6.226;2023-05-07T12:45:52;101863.00;;;26.19;45.42
76024;BME280;64719;52.124;6.226;2023-05-07T12:48:21;101860.94;;;26.11;44.85
76024;BME280;64719;52.124;6.226;2023-05-07T12:50:49;101872.38;;;25.96;45.23